»·PEaware :: SWA812 MDPC-KBWI

SWA812 :: MDPC-KBWI

FLIGHT INFORMATION

Flight Status: Arrived
Operator:
Southwest Airlines
More flights by this operator :: More flights under this callsign
Pilot: Drew L. (13237)
Aircraft: BOEING 737-800
(B738)
More flights by this aircraft type
Origin: MDPC Punta Cana Intl
Dominican Republic
Destination: KBWI Baltimore-Washington Intl
United States
More flights between these airports :: More routes between these airports
Route: PNA W28 PTA L463 JUELE/N0470F360 L463 TOMAZ/N0465F380 L463 NUCAR EMCEE/N0458F390 AR16 ILM/N0460F380 RUKRR THHMP RAVNN6
File this flight plan on PilotEdge
Remarks: PBN / A1B1C1D1S1S2 DOF / 180525 REG / N806SB EET / KZMA0034 KZJX0211 KZDC0242 OPR / SWA PER / C RMK / TCAS SIMBRIEF
Altitude:
(Current/Filed)
18,000ft
Speed:
(Current/Filed)
418kts
Departed: 25-May-18 02:25 PM
Arrived: 25-May-18 06:36 PM
Distance/Time
Traveled:
1310nm/4:11
Distance/Time
To Go:
Arrived

Flight Plot

Page will automatically refresh every two minutes.

Flight plan parsing failed; only flown route is shown


Map Options




Map Legend


Flown Route
Filed Route
Departure Airport
Arrival Airport
Navaid (VOR, NDB)
Fix

Horizontal Profiles

Position Reports

Time Latitude Longitude Heading Altitude Ground
Speed
25-May-18 14:08 18.563987 -68.364419 174 50ft 0kts
25-May-18 14:09 18.563987 -68.364419 174 50ft 0kts
25-May-18 14:10 18.563987 -68.364419 174 50ft 0kts
25-May-18 14:11 18.563987 -68.364419 174 50ft 0kts
25-May-18 14:12 18.563987 -68.364419 174 50ft 0kts
25-May-18 14:13 18.563987 -68.364419 174 50ft 0kts
25-May-18 14:14 18.563987 -68.364419 174 50ft 0kts
25-May-18 14:15 18.563987 -68.364419 174 51ft 0kts
25-May-18 14:16 18.563987 -68.364419 174 51ft 0kts
25-May-18 14:17 18.563987 -68.364419 174 51ft 0kts
25-May-18 14:18 18.563988 -68.364419 174 51ft 0kts
25-May-18 14:19 18.564523 -68.364446 202 51ft 2kts
25-May-18 14:20 18.564755 -68.364088 264 51ft 0kts
25-May-18 14:21 18.564755 -68.364088 264 51ft 0kts
25-May-18 14:22 18.565318 -68.367583 264 51ft 28kts
25-May-18 14:23 18.564577 -68.376105 264 51ft 29kts
25-May-18 14:24 18.566209 -68.376731 84 51ft 0kts
25-May-18 14:25 18.567786 -68.358546 86 141ft 164kts
25-May-18 14:26 18.597230 -68.329129 334 2625ft 212kts
25-May-18 14:27 18.631111 -68.384515 296 4997ft 253kts
25-May-18 14:28 18.661699 -68.458306 291 8043ft 285kts
25-May-18 14:29 18.693452 -68.537146 292 10892ft 314kts
25-May-18 14:30 18.728763 -68.624905 292 13916ft 334kts
25-May-18 14:31 18.764801 -68.714584 292 17022ft 347kts
25-May-18 14:32 18.802943 -68.809673 292 19823ft 360kts
25-May-18 14:33 18.845218 -68.907211 298 22296ft 372kts
25-May-18 14:34 18.896394 -69.003687 296 24479ft 384kts
25-May-18 14:35 18.946807 -69.104746 296 26496ft 394kts
25-May-18 14:36 18.999518 -69.207149 297 28372ft 402kts
25-May-18 14:37 19.054958 -69.310247 297 30287ft 403kts
25-May-18 14:38 19.109382 -69.411603 298 32341ft 394kts
25-May-18 14:39 19.163252 -69.511994 299 33573ft 402kts
25-May-18 14:40 19.220334 -69.618412 299 34026ft 426kts
25-May-18 14:41 19.273342 -69.726863 285 34031ft 422kts
25-May-18 14:42 19.328375 -69.836127 301 34021ft 423kts
25-May-18 14:43 19.390472 -69.941436 301 34021ft 423kts
25-May-18 14:44 19.452861 -70.047127 301 34019ft 423kts
25-May-18 14:45 19.514838 -70.152601 301 34005ft 423kts
25-May-18 14:46 19.576943 -70.258398 301 33984ft 423kts
25-May-18 14:47 19.638955 -70.364052 301 33981ft 423kts
25-May-18 14:48 19.701013 -70.469754 301 33989ft 423kts
25-May-18 14:49 19.765387 -70.573896 313 33977ft 425kts
25-May-18 14:50 19.856355 -70.651647 320 33986ft 426kts
25-May-18 14:51 19.948686 -70.728175 320 33994ft 426kts
25-May-18 14:52 20.042149 -70.805701 320 33990ft 426kts
25-May-18 14:53 20.135217 -70.882989 319 33993ft 429kts
25-May-18 14:54 20.194692 -70.932416 320 33994ft 430kts
25-May-18 14:55 20.237287 -70.967829 320 33994ft 432kts
25-May-18 14:56 20.280130 -71.003460 320 33992ft 433kts
25-May-18 14:57 20.325345 -71.041076 320 33992ft 434kts
25-May-18 14:58 20.373158 -71.080865 320 33992ft 434kts
25-May-18 14:59 20.425025 -71.123928 320 33992ft 434kts
25-May-18 15:00 20.475624 -71.164097 321 33992ft 435kts
25-May-18 15:01 20.528289 -71.207124 320 33992ft 434kts
25-May-18 15:02 20.579178 -71.249951 319 33991ft 434kts
25-May-18 15:03 20.628513 -71.291893 319 33991ft 433kts
25-May-18 15:04 20.673668 -71.330323 319 35127ft 406kts
25-May-18 15:05 20.706405 -71.358171 318 38951ft 307kts
25-May-18 15:06 20.742234 -71.389128 318 36853ft 367kts
25-May-18 15:07 20.791397 -71.430964 319 34065ft 411kts
25-May-18 15:08 20.847675 -71.478724 319 33996ft 431kts
25-May-18 15:09 20.903202 -71.525925 319 33990ft 434kts
25-May-18 15:10 20.957589 -71.572227 319 33989ft 434kts
25-May-18 15:11 21.016319 -71.622248 319 33989ft 432kts
25-May-18 15:12 21.068662 -71.666845 319 33997ft 429kts
25-May-18 15:13 21.118550 -71.709364 319 33996ft 426kts
25-May-18 15:14 21.168772 -71.752145 319 33996ft 427kts
25-May-18 15:15 21.218418 -71.794437 319 33996ft 427kts
25-May-18 15:16 21.267028 -71.835836 319 33995ft 427kts
25-May-18 15:17 21.317713 -71.878988 319 33995ft 427kts
25-May-18 15:18 21.366891 -71.920874 319 33995ft 427kts
25-May-18 15:19 21.414881 -71.961740 319 33993ft 428kts
25-May-18 15:20 21.461301 -72.001260 319 33990ft 426kts
25-May-18 15:21 21.516144 -72.047952 319 33990ft 427kts
25-May-18 15:22 21.572149 -72.095624 319 33992ft 426kts
25-May-18 15:23 21.629484 -72.144435 319 33991ft 427kts
25-May-18 15:24 21.687850 -72.194127 319 33993ft 426kts
25-May-18 15:25 21.743618 -72.241598 319 33991ft 427kts
25-May-18 15:26 21.800037 -72.289604 319 33990ft 428kts
25-May-18 15:27 21.858347 -72.339236 319 33988ft 426kts
25-May-18 15:28 21.917764 -72.389818 319 33990ft 426kts
25-May-18 15:29 21.977398 -72.440540 319 33988ft 427kts
25-May-18 15:30 22.034836 -72.489421 320 33991ft 428kts
25-May-18 15:31 22.087766 -72.534444 319 33987ft 427kts
25-May-18 15:32 22.147164 -72.584974 320 33992ft 427kts
25-May-18 15:33 22.239966 -72.663917 319 33995ft 427kts
25-May-18 15:34 22.333245 -72.743289 319 34002ft 434kts
25-May-18 15:35 22.416731 -72.814235 319 33993ft 439kts
25-May-18 15:36 22.469683 -72.859250 319 33992ft 438kts
25-May-18 15:37 22.516491 -72.899044 319 33995ft 438kts
25-May-18 15:38 22.565217 -72.940491 319 33993ft 439kts
25-May-18 15:39 22.626734 -72.992763 319 33994ft 439kts
25-May-18 15:40 22.714526 -73.067385 319 33993ft 441kts
25-May-18 15:41 22.769410 -73.114027 319 33991ft 442kts
25-May-18 15:42 22.830249 -73.165713 319 33994ft 443kts
25-May-18 15:43 22.886469 -73.213471 319 33992ft 444kts
25-May-18 15:44 22.945442 -73.263562 319 33990ft 438kts
25-May-18 15:45 22.999553 -73.309542 319 33989ft 435kts
25-May-18 15:46 23.052645 -73.354651 319 33987ft 431kts
25-May-18 15:47 23.098220 -73.393380 319 33987ft 431kts
25-May-18 15:48 23.155724 -73.442221 319 33990ft 432kts
25-May-18 15:49 23.207101 -73.485847 319 33990ft 431kts
25-May-18 15:50 23.261720 -73.532217 319 33988ft 431kts
25-May-18 15:51 23.314818 -73.577292 319 33989ft 431kts
25-May-18 15:52 23.366800 -73.621415 319 33988ft 431kts
25-May-18 15:53 23.417270 -73.664253 319 33997ft 431kts
25-May-18 15:54 23.467593 -73.706987 319 33996ft 431kts
25-May-18 15:55 23.518472 -73.750170 319 33995ft 431kts
25-May-18 15:56 23.569106 -73.793132 319 33995ft 431kts
25-May-18 15:57 23.625910 -73.841321 319 33995ft 431kts
25-May-18 15:58 23.718750 -73.920062 319 33992ft 431kts
25-May-18 15:59 23.813317 -74.000251 319 33992ft 431kts
25-May-18 16:00 23.908075 -74.080583 319 33991ft 431kts
25-May-18 16:01 24.002533 -74.160641 319 33990ft 431kts
25-May-18 16:02 24.097212 -74.240869 319 33997ft 431kts
25-May-18 16:03 24.191822 -74.321017 319 34023ft 431kts
25-May-18 16:04 24.286364 -74.401085 319 34040ft 431kts
25-May-18 16:05 24.381030 -74.481239 319 34042ft 431kts
25-May-18 16:06 24.491415 -74.574676 319 34050ft 431kts
25-May-18 16:07 24.570550 -74.641641 319 34049ft 431kts
25-May-18 16:08 24.664735 -74.721369 319 34056ft 431kts
25-May-18 16:09 24.759600 -74.801617 319 34056ft 431kts
25-May-18 16:10 24.854264 -74.881658 319 34054ft 430kts
25-May-18 16:11 24.949499 -74.962152 319 34054ft 435kts
25-May-18 16:12 25.045702 -75.043436 319 34053ft 438kts
25-May-18 16:13 25.141862 -75.124661 319 34053ft 435kts
25-May-18 16:14 25.238032 -75.205888 319 34054ft 436kts
25-May-18 16:15 25.334197 -75.287075 319 34052ft 436kts
25-May-18 16:16 25.430327 -75.368209 319 34052ft 436kts
25-May-18 16:17 25.526730 -75.449546 319 34052ft 436kts
25-May-18 16:18 25.622915 -75.530671 319 34050ft 436kts
25-May-18 16:19 25.719555 -75.612154 319 34048ft 436kts
25-May-18 16:20 25.815412 -75.692977 319 34057ft 437kts
25-May-18 16:21 25.911806 -75.774224 319 34057ft 436kts
25-May-18 16:22 26.008541 -75.855708 319 34056ft 436kts
25-May-18 16:23 26.105089 -75.937004 319 34055ft 436kts
25-May-18 16:24 26.201565 -76.018207 319 34055ft 436kts
25-May-18 16:25 26.298099 -76.099430 319 34053ft 436kts
25-May-18 16:26 26.394819 -76.180780 319 34053ft 436kts
25-May-18 16:27 26.491595 -76.262150 319 34053ft 437kts
25-May-18 16:28 26.588200 -76.343341 319 34051ft 436kts
25-May-18 16:29 26.684994 -76.424663 320 34050ft 436kts
25-May-18 16:30 26.781771 -76.505941 320 34049ft 436kts
25-May-18 16:31 26.878640 -76.587264 320 34050ft 436kts
25-May-18 16:32 26.975509 -76.668562 319 34065ft 438kts
25-May-18 16:33 27.072964 -76.750363 319 34066ft 440kts
25-May-18 16:34 27.170981 -76.832570 319 34065ft 440kts
25-May-18 16:35 27.269288 -76.914986 319 34063ft 444kts
25-May-18 16:36 27.368641 -76.998239 319 34063ft 448kts
25-May-18 16:37 27.468557 -77.081924 319 34063ft 449kts
25-May-18 16:38 27.568428 -77.165540 319 34063ft 449kts
25-May-18 16:39 27.668751 -77.249510 319 34062ft 449kts
25-May-18 16:40 27.768834 -77.333249 319 34062ft 449kts
25-May-18 16:41 27.869103 -77.417116 320 34061ft 450kts
25-May-18 16:42 27.969234 -77.500840 320 34062ft 449kts
25-May-18 16:43 28.069853 -77.584950 320 34060ft 449kts
25-May-18 16:44 28.180070 -77.649933 340 34062ft 461kts
25-May-18 16:45 28.303671 -77.687404 340 34065ft 461kts
25-May-18 16:46 28.427246 -77.724961 340 34065ft 460kts
25-May-18 16:47 28.550611 -77.762805 340 34065ft 461kts
25-May-18 16:48 28.674238 -77.800974 340 34065ft 461kts
25-May-18 16:49 28.797537 -77.839158 340 34066ft 460kts
25-May-18 16:50 28.920348 -77.877233 340 34112ft 459kts
25-May-18 16:51 29.039021 -77.913985 340 36621ft 435kts
25-May-18 16:52 29.154499 -77.949855 340 38036ft 432kts
25-May-18 16:53 29.271967 -77.986367 340 38038ft 435kts
25-May-18 16:54 29.386528 -78.021888 340 38046ft 425kts
25-May-18 16:55 29.501157 -78.057495 340 38044ft 431kts
25-May-18 16:56 29.616374 -78.093262 340 38046ft 429kts
25-May-18 16:57 29.731613 -78.129024 340 38042ft 430kts
25-May-18 16:58 29.846610 -78.164714 340 38042ft 429kts
25-May-18 16:59 29.961624 -78.200415 340 38043ft 429kts
25-May-18 17:00 30.076547 -78.236093 340 38042ft 429kts
25-May-18 17:01 30.191509 -78.271769 340 38044ft 429kts
25-May-18 17:02 30.306949 -78.307617 340 38054ft 431kts
25-May-18 17:03 30.421735 -78.343213 340 38080ft 429kts
25-May-18 17:04 30.537162 -78.379080 340 38076ft 429kts
25-May-18 17:05 30.652213 -78.414836 340 38081ft 431kts
25-May-18 17:06 30.767384 -78.450571 340 38077ft 429kts
25-May-18 17:07 30.888087 -78.444918 3 38082ft 444kts
25-May-18 17:08 31.008916 -78.425131 5 38076ft 432kts
25-May-18 17:09 31.125588 -78.405680 6 38081ft 432kts
25-May-18 17:10 31.244268 -78.385758 6 38081ft 432kts
25-May-18 17:11 31.362642 -78.365853 6 38081ft 432kts
25-May-18 17:12 31.481297 -78.345889 6 38081ft 432kts
25-May-18 17:13 31.599863 -78.325933 6 38085ft 432kts
25-May-18 17:14 31.718853 -78.305901 6 38094ft 432kts
25-May-18 17:15 31.837428 -78.285936 6 38095ft 432kts
25-May-18 17:16 31.956105 -78.265950 6 38098ft 432kts
25-May-18 17:17 32.074716 -78.245971 6 38098ft 432kts
25-May-18 17:18 32.193551 -78.225969 6 38109ft 444kts
25-May-18 17:19 32.316055 -78.205336 6 38099ft 445kts
25-May-18 17:20 32.438281 -78.184737 6 38100ft 445kts
25-May-18 17:21 32.559528 -78.164302 6 38102ft 445kts
25-May-18 17:22 32.637057 -78.151234 6 38104ft 445kts
25-May-18 17:23 32.708373 -78.139211 6 38105ft 445kts
25-May-18 17:24 32.780482 -78.127053 6 38104ft 445kts
25-May-18 17:25 32.852741 -78.114868 6 38102ft 445kts
25-May-18 17:26 32.923296 -78.102971 6 38098ft 445kts
25-May-18 17:27 33.004046 -78.089359 6 38097ft 446kts
25-May-18 17:28 33.074694 -78.077456 6 38098ft 446kts
25-May-18 17:29 33.138146 -78.066759 7 38101ft 447kts
25-May-18 17:30 33.210591 -78.054531 7 38101ft 447kts
25-May-18 17:31 33.283005 -78.042309 7 38101ft 447kts
25-May-18 17:32 33.357069 -78.029811 7 38101ft 447kts
25-May-18 17:33 33.421085 -78.019007 7 38100ft 447kts
25-May-18 17:34 33.492893 -78.006890 7 38100ft 447kts
25-May-18 17:35 33.557388 -77.996006 7 38101ft 447kts
25-May-18 17:36 33.618592 -77.985677 6 38100ft 446kts
25-May-18 17:37 33.681609 -77.975042 6 38100ft 447kts
25-May-18 17:38 33.743729 -77.964557 6 38100ft 447kts
25-May-18 17:39 33.805990 -77.954048 6 38100ft 447kts
25-May-18 17:40 33.888469 -77.940125 6 38099ft 446kts
25-May-18 17:41 34.011098 -77.919424 6 38100ft 447kts
25-May-18 17:42 34.133104 -77.898823 6 38101ft 447kts
25-May-18 17:43 34.255836 -77.878100 6 38101ft 446kts
25-May-18 17:44 34.378465 -77.857392 6 38100ft 447kts
25-May-18 17:45 34.501214 -77.836659 6 38101ft 446kts
25-May-18 17:46 34.623834 -77.815948 6 38099ft 447kts
25-May-18 17:47 34.746628 -77.795205 6 38098ft 447kts
25-May-18 17:48 34.869375 -77.774467 6 38099ft 447kts
25-May-18 17:49 34.991950 -77.753752 6 38089ft 446kts
25-May-18 17:50 35.113500 -77.733213 6 38087ft 446kts
25-May-18 17:51 35.235868 -77.712533 6 38092ft 446kts
25-May-18 17:52 35.358465 -77.691811 6 38092ft 446kts
25-May-18 17:53 35.481072 -77.671086 6 38090ft 446kts
25-May-18 17:54 35.603209 -77.650437 6 38088ft 446kts
25-May-18 17:55 35.725795 -77.629709 6 38088ft 446kts
25-May-18 17:56 35.848483 -77.608963 6 38090ft 446kts
25-May-18 17:57 35.970743 -77.588283 6 38092ft 446kts
25-May-18 17:58 36.093113 -77.567582 6 38080ft 446kts
25-May-18 17:59 36.212628 -77.547360 6 38065ft 446kts
25-May-18 18:00 36.335024 -77.526647 6 38064ft 446kts
25-May-18 18:01 36.457572 -77.505902 6 38064ft 446kts
25-May-18 18:02 36.580122 -77.484950 6 38065ft 446kts
25-May-18 18:03 36.702208 -77.462984 6 38064ft 446kts
25-May-18 18:04 36.824615 -77.440895 6 38063ft 446kts
25-May-18 18:05 36.947012 -77.418753 6 38046ft 446kts
25-May-18 18:06 37.048383 -77.400340 6 38044ft 444kts
25-May-18 18:07 37.146538 -77.382476 5 38047ft 446kts
25-May-18 18:08 37.256301 -77.362481 5 38039ft 446kts
25-May-18 18:09 37.377875 -77.340268 6 38030ft 446kts
25-May-18 18:10 37.500472 -77.317732 6 38026ft 447kts
25-May-18 18:11 37.621769 -77.289008 8 35390ft 441kts
25-May-18 18:12 37.740161 -77.259984 9 32594ft 434kts
25-May-18 18:13 37.859002 -77.229045 9 29822ft 442kts
25-May-18 18:14 37.979747 -77.197530 9 26942ft 449kts
25-May-18 18:15 38.101978 -77.165553 9 23863ft 455kts
25-May-18 18:16 38.151748 -77.152506 9 22624ft 457kts
25-May-18 18:17 38.272531 -77.120763 9 19998ft 451kts
25-May-18 18:18 38.389879 -77.078415 30 18089ft 416kts
25-May-18 18:19 38.473405 -77.002826 33 17110ft 380kts
25-May-18 18:20 38.558288 -76.925850 36 15936ft 380kts
25-May-18 18:21 38.634943 -76.833283 42 13454ft 375kts
25-May-18 18:22 38.708747 -76.743407 44 10958ft 362kts
25-May-18 18:23 38.756157 -76.636327 61 9547ft 323kts
25-May-18 18:24 38.804123 -76.550980 23 8853ft 285kts
25-May-18 18:25 38.877990 -76.554730 341 7877ft 265kts
25-May-18 18:26 38.941262 -76.597113 327 6893ft 258kts
25-May-18 18:27 39.002471 -76.644019 327 5901ft 255kts
25-May-18 18:28 39.062703 -76.690282 327 4914ft 252kts
25-May-18 18:29 39.116513 -76.732082 327 4251ft 242kts
25-May-18 18:30 39.171015 -76.774785 327 3511ft 217kts
25-May-18 18:31 39.223777 -76.811282 2 3037ft 218kts
25-May-18 18:32 39.246603 -76.752611 108 2043ft 194kts
25-May-18 18:33 39.217613 -76.711618 146 961ft 145kts
25-May-18 18:34 39.191947 -76.688026 145 388ft 139kts
25-May-18 18:35 39.171235 -76.668899 145 153ft 52kts
25-May-18 18:36 39.174108 -76.665960 339 153ft 25kts
25-May-18 18:37 39.176095 -76.668602 314 153ft 1kts
25-May-18 18:38 39.176102 -76.668612 313 153ft 0kts
25-May-18 18:39 39.176102 -76.668612 313 153ft 0kts
25-May-18 18:40 39.176102 -76.668612 313 153ft 0kts

Navigation Log

Ident Type
Flight plan parsing failed, navigation log unavailable